Current | Forecast
Updated: 1:15 PM CET on February 22, 2018
Observed at Szolnok, Hungary
Temperature 3°C
Windchill -2°C
Humidity 75%
Dew Point -1°C
Wind ENE at 30 km/h
Pressure 1014 hPa (Falling)
Conditions Mostly Cloudy
Visibility 10.0 kilometers
UV 2 out of 16
Clouds Scattered Clouds (SCT) : 1005 m
Mostly Cloudy (BKN) : 1524 m
Yesterday's Maximum 2°C
Yesterday's Minimum 0°C approx.
Yesterday's Heating Degree Days 31 approx.
Sunrise6:31 AM CET
Sunset5:11 PM CET
Moon Rise9:51 AM CET
Moon Set
Moon PhaseMoon Phase
Waxing Crescent
Raw METARMETAR LHSN 221215Z 07016KT 9999 SCT033 BKN050 03/M01 Q1014 NOSIG RMK BLU


Monday
. High: 64° F.
Tuesday
. High: 75° F.
Wednesday
. High: 78° F.
Thursday
. High: 82° F.
Friday
. High: 73° F.
Saturday
. High: 73° F.
Sunday
. High: 78° F.
Monday
. High: 73° F.

Units: English | Metric

Find the Weather for any City, State or Zipcode, or Country:

U.S. State List | Severe Weather | Tropical Storms | Ski Conditions
United States | Canada | Central America | South America | Asia | Europe | Australia | Africa | Islands

Weather Underground

© Copyright 2018
The Weather Company, LLC